Lulu Pass Weather Station

This weather station is located at 10020ft near Lulu Pass at the head of Fisher Creek. This data can be used with temperature and precipitation data from the Fisher Creek SNOTEL site. This data can be viewed directly on datagarrison.com

Elevation
10020ft
Jump to table bottom
Date Time Temperature
deg F
RH, % Wind Speed Wind Gust Wind Direction
02/22/24 06:00 15.1 95 8 18 NW - 314
02/22/24 05:00 14.9 95 6 9 NW - 309
02/22/24 04:00 14.5 94 6 12 NW - 309
02/22/24 03:00 14.1 94 7 13 NW - 330
02/22/24 02:00 13.8 94 10 14 N - 343
02/22/24 01:00 15.1 94 12 17 NW - 327
02/22/24 00:00 15.0 92 10 14 NW - 323
02/21/24 23:00 16.3 89 11 15 NW - 326
02/21/24 22:00 16.8 86 11 16 NW - 337
02/21/24 21:00 17.2 89 12 14 N - 347
02/21/24 20:00 17.8 93 8 14 N - 347
02/21/24 19:00 17.1 94 6 12 N - 347
02/21/24 18:00 18.5 95 3 7 W - 285
02/21/24 17:00 21.1 95 4 10 W - 264
02/21/24 16:00 20.8 96 8 14 NW - 334
02/21/24 15:00 22.2 96 8 13 NW - 327
02/21/24 14:00 21.5 95 8 13 NW - 329
02/21/24 13:00 20.6 95 6 11 NW - 305
02/21/24 12:00 21.0 95 5 8 NW - 316
02/21/24 11:00 20.6 95 3 6 NW - 313
02/21/24 10:00 19.5 95 4 7 N - 21
02/21/24 09:00 15.6 94 3 9 N - 354
02/21/24 08:00 14.5 94 3 10 SE - 142
02/21/24 07:00 14.5 95 4 11 S - 175
02/21/24 06:00 14.5 95 8 14 NW - 323
02/21/24 05:00 15.3 95 6 12 NW - 293
02/21/24 04:00 13.4 94 9 17 SW - 212
02/21/24 03:00 15.6 95 8 17 SW - 216
02/21/24 02:00 16.4 95 5 14 W - 254
02/21/24 01:00 16.6 95 4 16 NW - 324
02/21/24 00:00 16.7 95 10 24 SW - 222
02/20/24 23:00 17.2 95 13 26 SW - 222
02/20/24 22:00 17.4 95 10 19 SW - 220
02/20/24 21:00 17.7 95 13 32 SW - 218
02/20/24 20:00 18.2 96 10 22 SW - 223
02/20/24 19:00 18.8 96 12 31 SW - 226
02/20/24 18:00 18.9 96 9 25 W - 279
02/20/24 17:00 20.0 96 8 23 W - 256
02/20/24 16:00 20.7 96 9 27 SW - 241
02/20/24 15:00 20.7 96 11 26 SW - 227
02/20/24 14:00 20.7 96 10 24 W - 256
02/20/24 13:00 22.5 95 14 30 SW - 246
02/20/24 12:00 20.2 95 14 30 SW - 234
02/20/24 11:00 18.7 95 8 29 W - 268
02/20/24 10:00 19.1 96 7 23 W - 263
02/20/24 09:00 18.1 95 10 29 W - 253
02/20/24 08:00 18.2 95 10 22 SW - 227
02/20/24 07:00 18.1 95 12 24 SW - 216
02/20/24 06:00 18.0 95 9 20 SW - 225
02/20/24 05:00 17.8 95 15 32 SW - 220